Terminal Aerodrome Forecast
Issued by NWS

Home | Current Version | Previous Version | Text Only | Print | Product List | Glossary On
Versions: 1 2 3 4 5 6 7 8 9 10 11 12
110
FTUS44 KEPZ 032335
TAFDMN
TAF
KDMN 032335Z 0400/0424 10006KT P6SM SKC
     FM040600 04011KT P6SM FEW120
     FM041600 09012KT P6SM SKC=

USA.gov is the U.S. government's official web portal to all federal, state and local government web resources and services.